UUWW/VKO METAR and TAF weather

Enter ICAO airport designator
Station Type Date Time Source
UUWW METAR 2020/07/11 00:30 UTC NOAA

UUWW 110030Z 16003MPS CAVOK 14/09 Q1019 R24/000070 NOSIG


Station Type Date Time Source
UUWW Decoded METAR 2020/07/11 00:30 UTC NOAA

Moscow / Vnukovo , Russia (UUWW) 55-39N 037-16E
Jul 10, 2020 - 08:30 PM EDT / 2020.07.11 0030 UTC
Wind: from the SSE (160 degrees) at 7 MPH (6 KT):0
Visibility: greater than 7 mile(s):0
Temperature: 57 F (14 C)
Dew Point: 48 F (9 C)
Relative Humidity: 71%
Pressure (altimeter): 30.09 in. Hg (1019 hPa)
ob: UUWW 110030Z 16003MPS CAVOK 14/09 Q1019 R24/000070 NOSIG
cycle: 0

Station Type Date Time Source
UUWW TAF 2020/07/10 21:22 UTC NOAA

TAF UUWW 101959Z 1021/1121 17003MPS 9999 SCT040 TX28/1112Z TN13/1102Z
BECMG 1103/1105 19008G13MPS PROB40
TEMPO 1114/1118 -TSRA SCT020CB
BECMG 1118/1120 19003G08MPS

Example: see airport list